sensor_id;sensor_type;location;lat;lon;timestamp;P1;durP1;ratioP1;P2;durP2;ratioP2
69185;SDS011;56298;49.246;9.410;2023-06-24T00:02:11;8.90;;;5.32;;
69185;SDS011;56298;49.246;9.410;2023-06-24T00:04:36;8.43;;;5.30;;
69185;SDS011;56298;49.246;9.410;2023-06-24T00:07:01;11.00;;;5.83;;
69185;SDS011;56298;49.246;9.410;2023-06-24T00:09:27;9.20;;;5.30;;
69185;SDS011;56298;49.246;9.410;2023-06-24T00:11:54;12.73;;;5.60;;
69185;SDS011;56298;49.246;9.410;2023-06-24T00:14:20;10.25;;;5.72;;
69185;SDS011;56298;49.246;9.410;2023-06-24T00:16:46;11.80;;;5.38;;
69185;SDS011;56298;49.246;9.410;2023-06-24T00:19:18;8.75;;;5.20;;
69185;SDS011;56298;49.246;9.410;2023-06-24T00:21:44;9.30;;;5.25;;
69185;SDS011;56298;49.246;9.410;2023-06-24T00:24:09;9.43;;;5.17;;
69185;SDS011;56298;49.246;9.410;2023-06-24T00:26:34;8.60;;;5.17;;
69185;SDS011;56298;49.246;9.410;2023-06-24T00:29:00;10.70;;;5.50;;
69185;SDS011;56298;49.246;9.410;2023-06-24T00:31:25;9.25;;;5.55;;
69185;SDS011;56298;49.246;9.410;2023-06-24T00:33:50;10.80;;;5.38;;
69185;SDS011;56298;49.246;9.410;2023-06-24T00:36:17;11.05;;;5.72;;
69185;SDS011;56298;49.246;9.410;2023-06-24T00:38:42;10.43;;;5.20;;
69185;SDS011;56298;49.246;9.410;2023-06-24T00:41:08;9.83;;;5.23;;
69185;SDS011;56298;49.246;9.410;2023-06-24T00:43:33;10.20;;;5.70;;
69185;SDS011;56298;49.246;9.410;2023-06-24T00:45:59;12.43;;;5.50;;
69185;SDS011;56298;49.246;9.410;2023-06-24T00:48:25;10.43;;;5.80;;
69185;SDS011;56298;49.246;9.410;2023-06-24T00:50:50;8.97;;;5.70;;
69185;SDS011;56298;49.246;9.410;2023-06-24T00:53:16;11.02;;;5.50;;
69185;SDS011;56298;49.246;9.410;2023-06-24T00:55:42;10.50;;;5.30;;
69185;SDS011;56298;49.246;9.410;2023-06-24T00:58:10;9.38;;;5.40;;
69185;SDS011;56298;49.246;9.410;2023-06-24T01:00:40;8.93;;;5.18;;
69185;SDS011;56298;49.246;9.410;2023-06-24T01:03:06;11.60;;;5.37;;
69185;SDS011;56298;49.246;9.410;2023-06-24T01:05:31;9.93;;;5.47;;
69185;SDS011;56298;49.246;9.410;2023-06-24T01:08:00;10.30;;;5.40;;
69185;SDS011;56298;49.246;9.410;2023-06-24T01:10:26;10.13;;;5.40;;
69185;SDS011;56298;49.246;9.410;2023-06-24T01:12:52;10.20;;;5.50;;
69185;SDS011;56298;49.246;9.410;2023-06-24T01:15:17;9.10;;;5.47;;
69185;SDS011;56298;49.246;9.410;2023-06-24T01:17:48;10.67;;;6.10;;
69185;SDS011;56298;49.246;9.410;2023-06-24T01:20:52;9.63;;;5.80;;
69185;SDS011;56298;49.246;9.410;2023-06-24T01:26:45;10.52;;;6.03;;
69185;SDS011;56298;49.246;9.410;2023-06-24T01:32:25;9.90;;;5.93;;
69185;SDS011;56298;49.246;9.410;2023-06-24T01:34:58;12.20;;;5.95;;
69185;SDS011;56298;49.246;9.410;2023-06-24T01:37:33;9.98;;;5.97;;
69185;SDS011;56298;49.246;9.410;2023-06-24T01:42:44;10.07;;;6.10;;
69185;SDS011;56298;49.246;9.410;2023-06-24T01:45:19;10.20;;;5.90;;
69185;SDS011;56298;49.246;9.410;2023-06-24T01:47:48;11.63;;;6.00;;
69185;SDS011;56298;49.246;9.410;2023-06-24T01:50:19;11.18;;;5.95;;
69185;SDS011;56298;49.246;9.410;2023-06-24T01:52:47;11.15;;;5.88;;
69185;SDS011;56298;49.246;9.410;2023-06-24T01:55:18;13.68;;;6.03;;
69185;SDS011;56298;49.246;9.410;2023-06-24T01:57:44;10.77;;;5.95;;
69185;SDS011;56298;49.246;9.410;2023-06-24T02:00:13;11.27;;;5.88;;
69185;SDS011;56298;49.246;9.410;2023-06-24T02:02:39;12.32;;;6.35;;
69185;SDS011;56298;49.246;9.410;2023-06-24T02:05:05;10.02;;;6.18;;
69185;SDS011;56298;49.246;9.410;2023-06-24T02:07:32;9.33;;;6.00;;
69185;SDS011;56298;49.246;9.410;2023-06-24T02:09:58;8.88;;;5.88;;
69185;SDS011;56298;49.246;9.410;2023-06-24T02:12:24;10.37;;;6.17;;
69185;SDS011;56298;49.246;9.410;2023-06-24T02:14:51;10.77;;;5.80;;
69185;SDS011;56298;49.246;9.410;2023-06-24T02:17:18;11.20;;;6.13;;
69185;SDS011;56298;49.246;9.410;2023-06-24T02:19:45;11.02;;;6.22;;
69185;SDS011;56298;49.246;9.410;2023-06-24T02:22:12;11.25;;;6.35;;
69185;SDS011;56298;49.246;9.410;2023-06-24T02:24:38;11.40;;;6.30;;
69185;SDS011;56298;49.246;9.410;2023-06-24T02:27:06;14.48;;;6.82;;
69185;SDS011;56298;49.246;9.410;2023-06-24T02:29:32;10.68;;;6.07;;
69185;SDS011;56298;49.246;9.410;2023-06-24T02:32:00;12.23;;;6.40;;
69185;SDS011;56298;49.246;9.410;2023-06-24T02:34:26;10.17;;;6.10;;
69185;SDS011;56298;49.246;9.410;2023-06-24T02:36:51;10.40;;;5.60;;
69185;SDS011;56298;49.246;9.410;2023-06-24T02:39:17;10.10;;;5.97;;
69185;SDS011;56298;49.246;9.410;2023-06-24T02:41:43;12.30;;;6.13;;
69185;SDS011;56298;49.246;9.410;2023-06-24T02:44:10;10.38;;;5.90;;
69185;SDS011;56298;49.246;9.410;2023-06-24T02:46:35;13.48;;;6.00;;
69185;SDS011;56298;49.246;9.410;2023-06-24T02:49:01;9.10;;;5.97;;
69185;SDS011;56298;49.246;9.410;2023-06-24T02:51:27;12.75;;;6.47;;
69185;SDS011;56298;49.246;9.410;2023-06-24T02:53:53;13.52;;;6.35;;
69185;SDS011;56298;49.246;9.410;2023-06-24T02:56:20;12.40;;;6.40;;
69185;SDS011;56298;49.246;9.410;2023-06-24T02:58:46;14.33;;;6.33;;
69185;SDS011;56298;49.246;9.410;2023-06-24T03:01:12;10.80;;;6.30;;
69185;SDS011;56298;49.246;9.410;2023-06-24T03:03:37;11.87;;;6.50;;
69185;SDS011;56298;49.246;9.410;2023-06-24T03:06:02;12.93;;;6.73;;
69185;SDS011;56298;49.246;9.410;2023-06-24T03:08:28;11.90;;;6.30;;
69185;SDS011;56298;49.246;9.410;2023-06-24T03:10:54;12.27;;;6.45;;
69185;SDS011;56298;49.246;9.410;2023-06-24T03:13:21;10.65;;;6.50;;
69185;SDS011;56298;49.246;9.410;2023-06-24T03:15:46;11.23;;;6.37;;
69185;SDS011;56298;49.246;9.410;2023-06-24T03:18:11;14.87;;;6.80;;
69185;SDS011;56298;49.246;9.410;2023-06-24T03:20:37;15.73;;;6.80;;
69185;SDS011;56298;49.246;9.410;2023-06-24T03:23:05;14.23;;;6.70;;
69185;SDS011;56298;49.246;9.410;2023-06-24T03:25:31;12.63;;;6.45;;
69185;SDS011;56298;49.246;9.410;2023-06-24T03:27:56;13.05;;;6.60;;
69185;SDS011;56298;49.246;9.410;2023-06-24T03:30:22;12.20;;;6.37;;
69185;SDS011;56298;49.246;9.410;2023-06-24T03:32:47;14.27;;;6.60;;
69185;SDS011;56298;49.246;9.410;2023-06-24T03:35:12;12.10;;;6.60;;
69185;SDS011;56298;49.246;9.410;2023-06-24T03:37:38;14.15;;;6.68;;
69185;SDS011;56298;49.246;9.410;2023-06-24T03:40:04;15.13;;;7.17;;
69185;SDS011;56298;49.246;9.410;2023-06-24T03:42:30;12.88;;;6.90;;
69185;SDS011;56298;49.246;9.410;2023-06-24T03:44:55;14.50;;;7.00;;
69185;SDS011;56298;49.246;9.410;2023-06-24T03:47:20;14.47;;;7.30;;
69185;SDS011;56298;49.246;9.410;2023-06-24T03:49:45;13.13;;;6.70;;
69185;SDS011;56298;49.246;9.410;2023-06-24T03:52:11;13.67;;;6.87;;
69185;SDS011;56298;49.246;9.410;2023-06-24T03:54:36;15.60;;;6.80;;
69185;SDS011;56298;49.246;9.410;2023-06-24T03:57:01;16.27;;;7.23;;
69185;SDS011;56298;49.246;9.410;2023-06-24T03:59:27;13.37;;;6.43;;
69185;SDS011;56298;49.246;9.410;2023-06-24T04:01:52;12.07;;;6.70;;
69185;SDS011;56298;49.246;9.410;2023-06-24T04:04:17;12.20;;;7.07;;
69185;SDS011;56298;49.246;9.410;2023-06-24T04:06:43;15.80;;;6.87;;
69185;SDS011;56298;49.246;9.410;2023-06-24T04:09:08;14.63;;;7.20;;
69185;SDS011;56298;49.246;9.410;2023-06-24T04:11:35;11.57;;;6.57;;
69185;SDS011;56298;49.246;9.410;2023-06-24T04:14:00;13.40;;;7.07;;
69185;SDS011;56298;49.246;9.410;2023-06-24T04:16:25;14.20;;;6.63;;
69185;SDS011;56298;49.246;9.410;2023-06-24T04:18:50;12.90;;;7.47;;
69185;SDS011;56298;49.246;9.410;2023-06-24T04:21:18;10.88;;;6.93;;
69185;SDS011;56298;49.246;9.410;2023-06-24T04:23:43;12.60;;;7.40;;
69185;SDS011;56298;49.246;9.410;2023-06-24T04:26:09;13.50;;;6.77;;
69185;SDS011;56298;49.246;9.410;2023-06-24T04:28:34;13.83;;;6.63;;
69185;SDS011;56298;49.246;9.410;2023-06-24T04:31:00;11.88;;;6.90;;
69185;SDS011;56298;49.246;9.410;2023-06-24T04:33:25;13.40;;;6.90;;
69185;SDS011;56298;49.246;9.410;2023-06-24T04:35:50;12.53;;;7.10;;
69185;SDS011;56298;49.246;9.410;2023-06-24T04:38:16;13.77;;;7.03;;
69185;SDS011;56298;49.246;9.410;2023-06-24T04:40:43;13.20;;;6.53;;
69185;SDS011;56298;49.246;9.410;2023-06-24T04:43:08;13.13;;;6.57;;
69185;SDS011;56298;49.246;9.410;2023-06-24T04:45:34;12.20;;;6.67;;
69185;SDS011;56298;49.246;9.410;2023-06-24T04:47:59;12.33;;;6.50;;
69185;SDS011;56298;49.246;9.410;2023-06-24T04:50:24;11.20;;;6.53;;
69185;SDS011;56298;49.246;9.410;2023-06-24T04:52:53;13.20;;;6.30;;
69185;SDS011;56298;49.246;9.410;2023-06-24T04:55:22;11.38;;;6.43;;
69185;SDS011;56298;49.246;9.410;2023-06-24T04:57:47;11.15;;;6.30;;
69185;SDS011;56298;49.246;9.410;2023-06-24T05:00:13;9.57;;;6.03;;
69185;SDS011;56298;49.246;9.410;2023-06-24T05:02:38;11.50;;;6.45;;
69185;SDS011;56298;49.246;9.410;2023-06-24T05:05:04;12.27;;;6.30;;
69185;SDS011;56298;49.246;9.410;2023-06-24T05:07:29;15.27;;;6.57;;
69185;SDS011;56298;49.246;9.410;2023-06-24T05:09:55;12.65;;;6.20;;
69185;SDS011;56298;49.246;9.410;2023-06-24T05:12:20;10.87;;;6.77;;
69185;SDS011;56298;49.246;9.410;2023-06-24T05:14:49;10.33;;;6.00;;
69185;SDS011;56298;49.246;9.410;2023-06-24T05:17:15;12.83;;;6.50;;
69185;SDS011;56298;49.246;9.410;2023-06-24T05:19:40;9.97;;;5.90;;
69185;SDS011;56298;49.246;9.410;2023-06-24T05:22:06;11.93;;;5.73;;
69185;SDS011;56298;49.246;9.410;2023-06-24T05:24:31;10.17;;;6.17;;
69185;SDS011;56298;49.246;9.410;2023-06-24T05:26:56;9.60;;;5.60;;
69185;SDS011;56298;49.246;9.410;2023-06-24T05:29:29;8.77;;;5.50;;
69185;SDS011;56298;49.246;9.410;2023-06-24T05:31:54;10.43;;;5.40;;
69185;SDS011;56298;49.246;9.410;2023-06-24T05:34:19;9.70;;;5.23;;
69185;SDS011;56298;49.246;9.410;2023-06-24T05:36:45;8.53;;;5.20;;
69185;SDS011;56298;49.246;9.410;2023-06-24T05:39:10;10.67;;;5.43;;
69185;SDS011;56298;49.246;9.410;2023-06-24T05:41:36;8.82;;;5.70;;
69185;SDS011;56298;49.246;9.410;2023-06-24T05:44:02;9.90;;;5.40;;
69185;SDS011;56298;49.246;9.410;2023-06-24T05:46:29;10.00;;;4.82;;
69185;SDS011;56298;49.246;9.410;2023-06-24T05:48:55;8.33;;;5.20;;
69185;SDS011;56298;49.246;9.410;2023-06-24T05:51:20;8.03;;;4.50;;
69185;SDS011;56298;49.246;9.410;2023-06-24T05:53:45;8.07;;;5.43;;
69185;SDS011;56298;49.246;9.410;2023-06-24T05:56:10;9.73;;;4.60;;
69185;SDS011;56298;49.246;9.410;2023-06-24T05:58:35;7.77;;;4.47;;
69185;SDS011;56298;49.246;9.410;2023-06-24T06:01:01;8.70;;;5.00;;
69185;SDS011;56298;49.246;9.410;2023-06-24T06:03:26;9.27;;;4.90;;
69185;SDS011;56298;49.246;9.410;2023-06-24T06:05:51;8.83;;;5.10;;
69185;SDS011;56298;49.246;9.410;2023-06-24T06:08:17;8.53;;;4.57;;
69185;SDS011;56298;49.246;9.410;2023-06-24T06:10:42;8.00;;;5.00;;
69185;SDS011;56298;49.246;9.410;2023-06-24T06:13:07;8.20;;;4.77;;
69185;SDS011;56298;49.246;9.410;2023-06-24T06:15:32;8.40;;;4.97;;
69185;SDS011;56298;49.246;9.410;2023-06-24T06:17:58;7.97;;;5.07;;
69185;SDS011;56298;49.246;9.410;2023-06-24T06:20:23;7.10;;;4.70;;
69185;SDS011;56298;49.246;9.410;2023-06-24T06:22:48;7.68;;;5.00;;
69185;SDS011;56298;49.246;9.410;2023-06-24T06:25:16;7.45;;;4.65;;
69185;SDS011;56298;49.246;9.410;2023-06-24T06:27:41;7.90;;;4.57;;
69185;SDS011;56298;49.246;9.410;2023-06-24T06:30:06;6.47;;;4.43;;
69185;SDS011;56298;49.246;9.410;2023-06-24T06:32:32;8.67;;;4.70;;
69185;SDS011;56298;49.246;9.410;2023-06-24T06:34:57;7.13;;;4.40;;
69185;SDS011;56298;49.246;9.410;2023-06-24T06:37:22;6.43;;;4.10;;
69185;SDS011;56298;49.246;9.410;2023-06-24T06:39:48;8.33;;;4.33;;
69185;SDS011;56298;49.246;9.410;2023-06-24T06:42:13;7.50;;;4.13;;
69185;SDS011;56298;49.246;9.410;2023-06-24T06:44:39;6.55;;;3.80;;
69185;SDS011;56298;49.246;9.410;2023-06-24T06:47:05;6.83;;;3.90;;
69185;SDS011;56298;49.246;9.410;2023-06-24T06:49:30;7.93;;;4.10;;
69185;SDS011;56298;49.246;9.410;2023-06-24T07:53:59;6.50;;;4.50;;
69185;SDS011;56298;49.246;9.410;2023-06-24T07:56:24;6.43;;;3.90;;
69185;SDS011;56298;49.246;9.410;2023-06-24T07:58:49;6.63;;;3.90;;
69185;SDS011;56298;49.246;9.410;2023-06-24T08:01:15;6.63;;;4.53;;
69185;SDS011;56298;49.246;9.410;2023-06-24T08:03:40;6.73;;;4.20;;
69185;SDS011;56298;49.246;9.410;2023-06-24T08:06:05;6.03;;;3.53;;
69185;SDS011;56298;49.246;9.410;2023-06-24T08:08:30;6.47;;;4.20;;
69185;SDS011;56298;49.246;9.410;2023-06-24T08:10:56;5.90;;;3.80;;
69185;SDS011;56298;49.246;9.410;2023-06-24T08:13:21;6.83;;;4.00;;
69185;SDS011;56298;49.246;9.410;2023-06-24T08:15:46;6.57;;;3.70;;
69185;SDS011;56298;49.246;9.410;2023-06-24T08:18:12;6.03;;;3.90;;
69185;SDS011;56298;49.246;9.410;2023-06-24T08:20:37;5.83;;;3.80;;
69185;SDS011;56298;49.246;9.410;2023-06-24T08:23:02;6.33;;;3.60;;
69185;SDS011;56298;49.246;9.410;2023-06-24T08:25:27;5.60;;;3.70;;
69185;SDS011;56298;49.246;9.410;2023-06-24T08:27:53;7.23;;;3.87;;
69185;SDS011;56298;49.246;9.410;2023-06-24T08:30:18;6.83;;;3.70;;
69185;SDS011;56298;49.246;9.410;2023-06-24T08:32:43;6.57;;;3.90;;
69185;SDS011;56298;49.246;9.410;2023-06-24T08:35:09;6.67;;;4.03;;
69185;SDS011;56298;49.246;9.410;2023-06-24T08:37:35;6.20;;;4.00;;
69185;SDS011;56298;49.246;9.410;2023-06-24T08:40:02;6.18;;;3.78;;
69185;SDS011;56298;49.246;9.410;2023-06-24T08:42:29;6.80;;;3.63;;
69185;SDS011;56298;49.246;9.410;2023-06-24T08:44:54;5.17;;;3.50;;
69185;SDS011;56298;49.246;9.410;2023-06-24T08:47:20;6.22;;;3.55;;
69185;SDS011;56298;49.246;9.410;2023-06-24T08:49:48;6.80;;;3.97;;
69185;SDS011;56298;49.246;9.410;2023-06-24T08:52:20;5.73;;;3.73;;
69185;SDS011;56298;49.246;9.410;2023-06-24T08:54:46;5.30;;;3.45;;
69185;SDS011;56298;49.246;9.410;2023-06-24T08:57:15;5.93;;;3.78;;
69185;SDS011;56298;49.246;9.410;2023-06-24T08:59:41;5.77;;;3.50;;
69185;SDS011;56298;49.246;9.410;2023-06-24T09:02:07;6.50;;;3.75;;
69185;SDS011;56298;49.246;9.410;2023-06-24T09:04:32;5.97;;;3.40;;
69185;SDS011;56298;49.246;9.410;2023-06-24T09:06:57;6.27;;;3.60;;
69185;SDS011;56298;49.246;9.410;2023-06-24T09:09:23;6.82;;;3.67;;
69185;SDS011;56298;49.246;9.410;2023-06-24T09:11:52;5.80;;;3.53;;
69185;SDS011;56298;49.246;9.410;2023-06-24T09:14:21;5.88;;;3.58;;
69185;SDS011;56298;49.246;9.410;2023-06-24T09:16:55;5.30;;;3.60;;
69185;SDS011;56298;49.246;9.410;2023-06-24T09:19:23;6.28;;;3.88;;
69185;SDS011;56298;49.246;9.410;2023-06-24T09:21:50;6.72;;;3.53;;
69185;SDS011;56298;49.246;9.410;2023-06-24T09:24:19;6.17;;;3.53;;
69185;SDS011;56298;49.246;9.410;2023-06-24T09:26:44;5.93;;;3.13;;
69185;SDS011;56298;49.246;9.410;2023-06-24T09:29:10;6.13;;;3.00;;
69185;SDS011;56298;49.246;9.410;2023-06-24T09:31:45;5.60;;;3.30;;
69185;SDS011;56298;49.246;9.410;2023-06-24T09:34:12;5.45;;;3.13;;
69185;SDS011;56298;49.246;9.410;2023-06-24T09:36:41;7.03;;;3.75;;
69185;SDS011;56298;49.246;9.410;2023-06-24T09:39:07;6.00;;;3.63;;
69185;SDS011;56298;49.246;9.410;2023-06-24T09:41:33;5.37;;;3.47;;
69185;SDS011;56298;49.246;9.410;2023-06-24T09:43:59;5.17;;;3.50;;
69185;SDS011;56298;49.246;9.410;2023-06-24T09:46:24;5.47;;;3.50;;
69185;SDS011;56298;49.246;9.410;2023-06-24T09:48:49;5.88;;;3.50;;
69185;SDS011;56298;49.246;9.410;2023-06-24T09:51:15;6.73;;;3.60;;
69185;SDS011;56298;49.246;9.410;2023-06-24T09:53:41;6.25;;;3.50;;
69185;SDS011;56298;49.246;9.410;2023-06-24T09:56:07;6.50;;;3.70;;
69185;SDS011;56298;49.246;9.410;2023-06-24T09:58:35;6.35;;;3.40;;
69185;SDS011;56298;49.246;9.410;2023-06-24T10:01:02;5.68;;;2.95;;
69185;SDS011;56298;49.246;9.410;2023-06-24T10:03:32;6.05;;;3.28;;
69185;SDS011;56298;49.246;9.410;2023-06-24T10:06:00;5.45;;;3.13;;
69185;SDS011;56298;49.246;9.410;2023-06-24T10:08:27;5.75;;;3.08;;
69185;SDS011;56298;49.246;9.410;2023-06-24T10:10:53;6.93;;;3.55;;
69185;SDS011;56298;49.246;9.410;2023-06-24T10:13:18;6.37;;;3.50;;
69185;SDS011;56298;49.246;9.410;2023-06-24T10:15:44;6.70;;;3.35;;
69185;SDS011;56298;49.246;9.410;2023-06-24T10:18:31;5.90;;;3.30;;
69185;SDS011;56298;49.246;9.410;2023-06-24T10:21:06;5.20;;;2.92;;
69185;SDS011;56298;49.246;9.410;2023-06-24T10:26:28;5.88;;;3.33;;
69185;SDS011;56298;49.246;9.410;2023-06-24T10:36:46;5.40;;;3.07;;
69185;SDS011;56298;49.246;9.410;2023-06-24T10:44:50;5.10;;;3.00;;
69185;SDS011;56298;49.246;9.410;2023-06-24T10:47:17;5.90;;;2.90;;
69185;SDS011;56298;49.246;9.410;2023-06-24T10:49:42;5.30;;;3.20;;
69185;SDS011;56298;49.246;9.410;2023-06-24T10:52:08;4.80;;;2.80;;
69185;SDS011;56298;49.246;9.410;2023-06-24T10:54:35;4.57;;;2.80;;
69185;SDS011;56298;49.246;9.410;2023-06-24T10:57:01;5.07;;;2.80;;
69185;SDS011;56298;49.246;9.410;2023-06-24T10:59:28;4.60;;;2.60;;
69185;SDS011;56298;49.246;9.410;2023-06-24T11:01:59;4.88;;;2.58;;
69185;SDS011;56298;49.246;9.410;2023-06-24T11:04:24;4.93;;;3.23;;
69185;SDS011;56298;49.246;9.410;2023-06-24T11:06:56;5.75;;;2.60;;
69185;SDS011;56298;49.246;9.410;2023-06-24T11:09:25;5.00;;;2.67;;
69185;SDS011;56298;49.246;9.410;2023-06-24T11:11:51;5.20;;;2.80;;
69185;SDS011;56298;49.246;9.410;2023-06-24T11:14:17;5.40;;;2.80;;
69185;SDS011;56298;49.246;9.410;2023-06-24T11:16:42;6.45;;;2.95;;
69185;SDS011;56298;49.246;9.410;2023-06-24T11:19:10;6.00;;;2.90;;
69185;SDS011;56298;49.246;9.410;2023-06-24T11:21:35;4.87;;;2.70;;
69185;SDS011;56298;49.246;9.410;2023-06-24T11:24:03;6.00;;;2.87;;
69185;SDS011;56298;49.246;9.410;2023-06-24T11:26:29;5.00;;;3.30;;
69185;SDS011;56298;49.246;9.410;2023-06-24T11:28:55;4.83;;;2.70;;
69185;SDS011;56298;49.246;9.410;2023-06-24T11:31:26;5.40;;;2.90;;
69185;SDS011;56298;49.246;9.410;2023-06-24T11:33:51;4.68;;;2.70;;
69185;SDS011;56298;49.246;9.410;2023-06-24T11:36:20;4.57;;;2.60;;
69185;SDS011;56298;49.246;9.410;2023-06-24T11:38:46;6.10;;;2.60;;
69185;SDS011;56298;49.246;9.410;2023-06-24T11:41:11;4.80;;;2.80;;
69185;SDS011;56298;49.246;9.410;2023-06-24T11:43:37;4.72;;;2.72;;
69185;SDS011;56298;49.246;9.410;2023-06-24T11:46:02;5.70;;;2.53;;
69185;SDS011;56298;49.246;9.410;2023-06-24T11:48:28;4.60;;;2.90;;
69185;SDS011;56298;49.246;9.410;2023-06-24T11:50:54;6.03;;;2.85;;
69185;SDS011;56298;49.246;9.410;2023-06-24T11:56:14;5.10;;;2.80;;
69185;SDS011;56298;49.246;9.410;2023-06-24T11:58:42;4.80;;;2.55;;
69185;SDS011;56298;49.246;9.410;2023-06-24T12:01:08;4.80;;;2.70;;
69185;SDS011;56298;49.246;9.410;2023-06-24T12:03:33;5.03;;;3.00;;
69185;SDS011;56298;49.246;9.410;2023-06-24T12:05:59;5.27;;;2.57;;
69185;SDS011;56298;49.246;9.410;2023-06-24T12:08:25;6.20;;;2.67;;
69185;SDS011;56298;49.246;9.410;2023-06-24T12:10:51;5.10;;;2.60;;
69185;SDS011;56298;49.246;9.410;2023-06-24T12:13:16;6.20;;;3.13;;
69185;SDS011;56298;49.246;9.410;2023-06-24T12:15:42;5.07;;;2.80;;
69185;SDS011;56298;49.246;9.410;2023-06-24T12:18:07;4.43;;;2.65;;
69185;SDS011;56298;49.246;9.410;2023-06-24T12:20:33;5.17;;;2.97;;
69185;SDS011;56298;49.246;9.410;2023-06-24T12:22:59;5.72;;;3.17;;
69185;SDS011;56298;49.246;9.410;2023-06-24T12:25:25;5.30;;;2.73;;
69185;SDS011;56298;49.246;9.410;2023-06-24T12:27:50;4.90;;;2.60;;
69185;SDS011;56298;49.246;9.410;2023-06-24T12:30:15;5.05;;;2.72;;
69185;SDS011;56298;49.246;9.410;2023-06-24T12:32:45;5.10;;;2.72;;
69185;SDS011;56298;49.246;9.410;2023-06-24T12:35:10;5.40;;;2.80;;
69185;SDS011;56298;49.246;9.410;2023-06-24T12:37:36;5.23;;;2.87;;
69185;SDS011;56298;49.246;9.410;2023-06-24T12:40:02;5.85;;;2.92;;
69185;SDS011;56298;49.246;9.410;2023-06-24T12:42:29;5.63;;;2.87;;
69185;SDS011;56298;49.246;9.410;2023-06-24T12:44:54;5.80;;;2.70;;
69185;SDS011;56298;49.246;9.410;2023-06-24T12:47:20;5.63;;;2.80;;
69185;SDS011;56298;49.246;9.410;2023-06-24T12:49:46;6.15;;;3.13;;
69185;SDS011;56298;49.246;9.410;2023-06-24T12:52:12;6.00;;;3.10;;
69185;SDS011;56298;49.246;9.410;2023-06-24T12:54:38;4.93;;;2.90;;
69185;SDS011;56298;49.246;9.410;2023-06-24T12:57:03;5.70;;;3.00;;
69185;SDS011;56298;49.246;9.410;2023-06-24T12:59:29;5.30;;;3.17;;
69185;SDS011;56298;49.246;9.410;2023-06-24T13:01:54;5.20;;;2.60;;
69185;SDS011;56298;49.246;9.410;2023-06-24T13:04:19;5.93;;;2.80;;
69185;SDS011;56298;49.246;9.410;2023-06-24T13:06:47;4.97;;;2.83;;
69185;SDS011;56298;49.246;9.410;2023-06-24T13:09:13;5.20;;;2.83;;
69185;SDS011;56298;49.246;9.410;2023-06-24T13:11:38;4.97;;;2.50;;
69185;SDS011;56298;49.246;9.410;2023-06-24T13:14:05;4.82;;;2.85;;
69185;SDS011;56298;49.246;9.410;2023-06-24T13:16:30;5.30;;;2.50;;
69185;SDS011;56298;49.246;9.410;2023-06-24T13:18:55;6.07;;;2.90;;
69185;SDS011;56298;49.246;9.410;2023-06-24T13:21:20;5.50;;;2.97;;
69185;SDS011;56298;49.246;9.410;2023-06-24T13:23:47;4.57;;;2.73;;
69185;SDS011;56298;49.246;9.410;2023-06-24T13:26:13;6.32;;;3.03;;
69185;SDS011;56298;49.246;9.410;2023-06-24T13:28:38;5.57;;;3.13;;
69185;SDS011;56298;49.246;9.410;2023-06-24T13:31:04;5.10;;;3.00;;
69185;SDS011;56298;49.246;9.410;2023-06-24T13:33:29;5.17;;;2.67;;
69185;SDS011;56298;49.246;9.410;2023-06-24T13:35:55;4.70;;;2.83;;
69185;SDS011;56298;49.246;9.410;2023-06-24T13:38:21;5.53;;;2.80;;
69185;SDS011;56298;49.246;9.410;2023-06-24T13:40:46;5.53;;;2.70;;
69185;SDS011;56298;49.246;9.410;2023-06-24T13:43:12;5.23;;;2.70;;
69185;SDS011;56298;49.246;9.410;2023-06-24T13:45:37;4.80;;;2.70;;
69185;SDS011;56298;49.246;9.410;2023-06-24T13:48:02;5.10;;;3.00;;
69185;SDS011;56298;49.246;9.410;2023-06-24T13:50:28;4.93;;;2.80;;
69185;SDS011;56298;49.246;9.410;2023-06-24T13:52:54;5.63;;;3.15;;
69185;SDS011;56298;49.246;9.410;2023-06-24T13:55:19;4.88;;;2.90;;
69185;SDS011;56298;49.246;9.410;2023-06-24T13:57:45;5.03;;;2.80;;
69185;SDS011;56298;49.246;9.410;2023-06-24T14:00:10;5.20;;;2.80;;
69185;SDS011;56298;49.246;9.410;2023-06-24T14:02:36;5.07;;;2.83;;
69185;SDS011;56298;49.246;9.410;2023-06-24T14:05:01;5.67;;;3.17;;
69185;SDS011;56298;49.246;9.410;2023-06-24T14:07:27;4.95;;;2.80;;
69185;SDS011;56298;49.246;9.410;2023-06-24T14:09:52;7.17;;;2.90;;
69185;SDS011;56298;49.246;9.410;2023-06-24T14:12:17;4.90;;;2.73;;
69185;SDS011;56298;49.246;9.410;2023-06-24T14:14:42;5.20;;;2.87;;
69185;SDS011;56298;49.246;9.410;2023-06-24T14:17:08;5.50;;;3.00;;
69185;SDS011;56298;49.246;9.410;2023-06-24T14:19:37;4.82;;;3.08;;
69185;SDS011;56298;49.246;9.410;2023-06-24T14:22:04;5.10;;;3.22;;
69185;SDS011;56298;49.246;9.410;2023-06-24T14:24:30;6.03;;;2.87;;
69185;SDS011;56298;49.246;9.410;2023-06-24T14:26:55;6.20;;;3.00;;
69185;SDS011;56298;49.246;9.410;2023-06-24T14:29:21;6.60;;;2.80;;
69185;SDS011;56298;49.246;9.410;2023-06-24T14:31:46;5.43;;;3.03;;
69185;SDS011;56298;49.246;9.410;2023-06-24T14:34:11;6.33;;;3.10;;
69185;SDS011;56298;49.246;9.410;2023-06-24T14:36:37;5.77;;;2.80;;
69185;SDS011;56298;49.246;9.410;2023-06-24T14:39:02;6.17;;;3.13;;
69185;SDS011;56298;49.246;9.410;2023-06-24T14:41:27;5.27;;;2.83;;
69185;SDS011;56298;49.246;9.410;2023-06-24T14:43:53;4.93;;;2.93;;
69185;SDS011;56298;49.246;9.410;2023-06-24T14:46:18;6.27;;;3.00;;
69185;SDS011;56298;49.246;9.410;2023-06-24T14:48:43;5.73;;;3.20;;
69185;SDS011;56298;49.246;9.410;2023-06-24T14:51:08;5.40;;;3.00;;
69185;SDS011;56298;49.246;9.410;2023-06-24T14:53:34;6.27;;;2.97;;
69185;SDS011;56298;49.246;9.410;2023-06-24T14:55:59;5.20;;;3.00;;
69185;SDS011;56298;49.246;9.410;2023-06-24T14:58:24;4.97;;;2.80;;
69185;SDS011;56298;49.246;9.410;2023-06-24T15:00:50;5.47;;;3.10;;
69185;SDS011;56298;49.246;9.410;2023-06-24T15:03:15;5.00;;;3.07;;
69185;SDS011;56298;49.246;9.410;2023-06-24T15:05:40;5.53;;;2.90;;
69185;SDS011;56298;49.246;9.410;2023-06-24T15:08:05;6.10;;;3.23;;
69185;SDS011;56298;49.246;9.410;2023-06-24T15:10:31;5.53;;;2.97;;
69185;SDS011;56298;49.246;9.410;2023-06-24T15:12:57;5.63;;;3.10;;
69185;SDS011;56298;49.246;9.410;2023-06-24T15:15:22;5.60;;;3.03;;
69185;SDS011;56298;49.246;9.410;2023-06-24T15:17:47;6.13;;;2.97;;
69185;SDS011;56298;49.246;9.410;2023-06-24T15:20:13;5.33;;;3.27;;
69185;SDS011;56298;49.246;9.410;2023-06-24T15:22:38;5.10;;;2.90;;
69185;SDS011;56298;49.246;9.410;2023-06-24T15:25:04;5.93;;;2.97;;
69185;SDS011;56298;49.246;9.410;2023-06-24T15:27:30;5.10;;;3.08;;
69185;SDS011;56298;49.246;9.410;2023-06-24T15:29:55;5.10;;;2.90;;
69185;SDS011;56298;49.246;9.410;2023-06-24T15:32:21;5.00;;;3.10;;
69185;SDS011;56298;49.246;9.410;2023-06-24T15:34:46;5.93;;;2.90;;
69185;SDS011;56298;49.246;9.410;2023-06-24T15:37:11;5.37;;;3.10;;
69185;SDS011;56298;49.246;9.410;2023-06-24T15:39:39;5.18;;;3.00;;
69185;SDS011;56298;49.246;9.410;2023-06-24T15:42:04;5.90;;;2.90;;
69185;SDS011;56298;49.246;9.410;2023-06-24T15:44:30;5.50;;;2.93;;
69185;SDS011;56298;49.246;9.410;2023-06-24T15:46:55;5.17;;;3.30;;
69185;SDS011;56298;49.246;9.410;2023-06-24T15:49:20;5.50;;;3.20;;
69185;SDS011;56298;49.246;9.410;2023-06-24T15:51:46;5.00;;;2.97;;
69185;SDS011;56298;49.246;9.410;2023-06-24T15:54:11;5.10;;;3.00;;
69185;SDS011;56298;49.246;9.410;2023-06-24T15:56:36;5.30;;;3.20;;
69185;SDS011;56298;49.246;9.410;2023-06-24T15:59:01;5.10;;;2.80;;
69185;SDS011;56298;49.246;9.410;2023-06-24T16:01:27;5.50;;;2.93;;
69185;SDS011;56298;49.246;9.410;2023-06-24T16:03:53;5.97;;;3.07;;
69185;SDS011;56298;49.246;9.410;2023-06-24T16:06:18;5.78;;;2.90;;
69185;SDS011;56298;49.246;9.410;2023-06-24T16:08:44;6.00;;;3.03;;